createdAt,value
2023-01-24T04:50:19.409Z,4.92
2023-01-24T05:15:09.599Z,4.53
2023-01-24T05:23:47.439Z,4.40
2023-01-24T05:35:36.812Z,4.41
2023-01-24T06:06:55.700Z,4.48
2023-01-24T06:10:50.344Z,4.81
2023-01-24T17:52:53.570Z,5.18
2023-01-24T17:57:10.854Z,4.99
2023-01-24T18:00:46.543Z,4.94
2023-01-24T18:03:54.562Z,4.79
2023-01-24T18:11:25.811Z,4.72
2023-01-24T18:14:40.506Z,4.40
2023-01-24T18:22:47.491Z,4.44
2023-01-24T18:25:56.461Z,4.30
2023-01-24T18:29:07.980Z,4.26
2023-01-24T18:32:31.465Z,4.06
2023-01-24T18:35:47.449Z,4.25
2023-01-24T18:39:16.388Z,4.22
2023-01-24T18:42:24.746Z,4.06
2023-01-24T18:45:41.887Z,4.04
2023-01-24T18:49:20.461Z,4.01
2023-01-24T18:52:35.716Z,3.91
2023-01-24T18:55:37.886Z,3.89
2023-01-24T18:59:23.743Z,3.55
2023-01-24T19:02:44.455Z,3.63
2023-01-24T19:05:46.532Z,3.73
2023-01-24T19:09:23.513Z,3.76
2023-01-24T19:12:32.163Z,3.79
2023-01-24T19:15:47.644Z,3.64
2023-01-24T19:23:06.729Z,3.82
2023-01-24T19:26:22.527Z,3.82
2023-01-24T19:29:38.493Z,3.78
2023-01-24T19:32:43.381Z,3.72
2023-01-24T19:36:16.485Z,3.71
2023-01-24T19:39:18.483Z,3.71
2023-01-24T19:46:44.472Z,3.82
2023-01-24T19:49:46.618Z,3.82
2023-01-24T19:53:01.461Z,3.52
2023-01-24T19:56:37.269Z,3.81
2023-01-24T19:59:59.484Z,3.91
2023-01-24T20:03:31.765Z,3.89
2023-01-24T20:10:56.044Z,3.80
2023-01-24T20:14:15.542Z,3.94
2023-01-24T20:21:18.482Z,3.73
2023-01-24T20:24:41.443Z,3.37
2023-01-24T20:32:38.618Z,3.84
2023-01-24T20:35:59.717Z,4.00
2023-01-24T20:39:18.549Z,3.62
2023-01-24T20:42:33.485Z,4.02
2023-01-24T20:45:51.575Z,4.13
2023-01-24T20:49:26.593Z,4.08
2023-01-24T20:53:44.160Z,4.06
2023-01-24T21:09:22.545Z,4.09
2023-01-24T21:20:42.476Z,4.10
2023-01-24T21:23:59.439Z,4.06
2023-01-24T21:27:14.528Z,4.08
2023-01-24T21:30:23.591Z,4.02
2023-01-24T21:33:32.740Z,4.06
2023-01-24T21:36:41.549Z,3.57
2023-01-24T21:40:28.839Z,3.94
2023-01-24T21:43:37.123Z,3.99
2023-01-24T21:46:45.586Z,3.77
2023-01-24T21:49:54.025Z,3.75
2023-01-24T21:53:14.525Z,3.13
2023-01-24T21:56:29.735Z,3.46
2023-01-24T21:59:33.875Z,3.43
2023-01-24T22:02:48.535Z,3.30
2023-01-24T22:05:50.312Z,3.22
2023-01-24T22:09:18.232Z,2.83
2023-01-24T22:12:20.391Z,3.02
2023-01-24T22:15:36.481Z,2.71
2023-01-24T22:19:30.775Z,2.93
2023-01-24T22:23:24.460Z,2.94
2023-01-24T22:26:41.877Z,2.85
2023-01-24T22:29:52.525Z,2.83
2023-01-24T22:33:01.424Z,2.76
2023-01-24T22:36:09.569Z,2.32
2023-01-24T22:39:24.490Z,2.44
2023-01-24T22:42:26.613Z,2.55
2023-01-24T22:45:41.517Z,2.49
2023-01-24T22:49:28.184Z,2.50
2023-01-24T22:52:44.111Z,2.63
2023-01-24T22:55:45.911Z,2.56
2023-01-24T22:59:09.514Z,2.45
2023-01-24T23:02:34.477Z,2.38
2023-01-24T23:05:49.569Z,2.49
2023-01-24T23:09:23.537Z,2.47
2023-01-24T23:12:40.506Z,2.37
2023-01-24T23:15:42.256Z,2.26
2023-01-24T23:19:35.481Z,1.89
2023-01-24T23:22:37.781Z,2.06
2023-01-24T23:25:52.456Z,2.07
2023-01-24T23:29:47.497Z,2.09
2023-01-24T23:33:08.477Z,2.03
2023-01-24T23:36:10.644Z,1.54
2023-01-24T23:39:43.496Z,1.63
2023-01-24T23:42:45.372Z,1.95
2023-01-24T23:46:00.657Z,1.99
2023-01-24T23:49:12.145Z,2.00
2023-01-24T23:52:35.476Z,1.96
2023-01-24T23:55:52.543Z,1.91
2023-01-24T23:59:02.959Z,1.57
